Terminal Aerodrome Forecast
Issued by NWS

Home | Current Version | Previous Version | Text Only | Print | Product List | Glossary On
Versions: 1 2 3 4 5 6 7 8 9 10 11 12 13 14 15 16 17 18 19 20
000
FTUS45 KREV 201700
TAFTRK
TAF
KTRK 201727Z 2018/2118 22006KT P6SM SCT030 BKN060
     FM202100 22010G18KT P6SM -SHRA SCT015 BKN030
     FM210200 VRB03KT 2SM -SHSN SCT008 BKN015
     FM210600 VRB03KT P6SM VCSH BKN020
     FM211100 VRB03KT P6SM BKN030=

USA.gov is the U.S. government's official web portal to all federal, state and local government web resources and services.